Time;durP1;ratioP1;P1;durP2;ratioP2;P2;SDS_P1;SDS_P2;PMS_P1;PMS_P2;Temp;Humidity;BMP_temperature;BMP_pressure;BME280_temperature;BME280_humidity;BME280_pressure;Samples;Min_cycle;Max_cycle;Signal;HPM_P1;HPM_P2
2022/05/02 00:02:21;;;;;;;3.70;3.50;;;;;;;;;;5095736;28;20514;-22
2022/05/02 00:04:48;;;;;;;3.80;3.60;;;;;;;;;;5096507;28;20476;-22
2022/05/02 00:07:14;;;;;;;3.60;3.40;;;;;;;;;;5096601;28;20031;-22
2022/05/02 00:09:40;;;;;;;3.95;3.67;;;;;;;;;;5096838;28;20026;-22
2022/05/02 00:12:07;;;;;;;4.15;3.95;;;;;;;;;;5096494;28;20099;-22
2022/05/02 00:14:33;;;;;;;4.00;3.80;;;;;;;;;;5096473;28;20020;-22
2022/05/02 00:16:59;;;;;;;3.83;3.63;;;;;;;;;;5096385;28;20024;-21
2022/05/02 00:19:26;;;;;;;3.75;3.55;;;;;;;;;;5096598;28;20020;-21
2022/05/02 00:21:52;;;;;;;3.58;3.38;;;;;;;;;;5096557;28;20035;-21
2022/05/02 00:24:18;;;;;;;4.40;4.03;;;;;;;;;;5096169;28;20129;-20
2022/05/02 00:26:44;;;;;;;3.67;3.47;;;;;;;;;;5096069;28;20028;-20
2022/05/02 00:29:10;;;;;;;3.70;3.50;;;;;;;;;;5096149;28;20016;-20
2022/05/02 00:31:36;;;;;;;4.20;4.00;;;;;;;;;;5096127;28;20504;-22
2022/05/02 00:34:02;;;;;;;3.53;3.33;;;;;;;;;;5095983;28;20093;-21
2022/05/02 00:36:29;;;;;;;3.70;3.50;;;;;;;;;;5096570;28;20165;-21
2022/05/02 00:38:55;;;;;;;3.58;3.38;;;;;;;;;;5095990;28;20028;-21
2022/05/02 00:41:22;;;;;;;3.17;3.03;;;;;;;;;;5095934;28;20024;-21
2022/05/02 00:43:48;;;;;;;3.72;3.53;;;;;;;;;;5096031;28;20051;-22
2022/05/02 00:46:21;;;;;;;3.95;3.75;;;;;;;;;;5095914;28;20029;-21
2022/05/02 00:48:48;;;;;;;3.47;3.28;;;;;;;;;;5096070;28;20095;-22
2022/05/02 00:51:15;;;;;;;3.40;3.20;;;;;;;;;;5095779;28;20023;-22
2022/05/02 00:53:41;;;;;;;3.35;3.15;;;;;;;;;;5095645;28;20059;-21
2022/05/02 00:56:08;;;;;;;3.40;3.20;;;;;;;;;;5095578;28;20089;-22
2022/05/02 00:58:35;;;;;;;3.45;3.25;;;;;;;;;;5095644;28;20103;-21
2022/05/02 01:01:01;;;;;;;3.20;3.10;;;;;;;;;;5095621;28;20031;-23
2022/05/02 01:03:27;;;;;;;3.60;3.40;;;;;;;;;;5095504;28;20096;-21
2022/05/02 01:08:39;;;;;;;3.40;3.20;;;;;;;;;;5095760;28;20111;-23
2022/05/02 01:11:05;;;;;;;3.45;3.25;;;;;;;;;;5094459;28;20035;-21
2022/05/02 01:13:36;;;;;;;3.38;3.17;;;;;;;;;;5095322;28;20024;-21
2022/05/02 01:16:11;;;;;;;3.45;3.28;;;;;;;;;;5095292;28;20035;-21
2022/05/02 01:18:38;;;;;;;3.65;3.45;;;;;;;;;;5095300;28;20107;-21
2022/05/02 01:21:08;;;;;;;2.53;2.42;;;;;;;;;;5095513;28;20043;-25
2022/05/02 01:23:34;;;;;;;3.25;3.05;;;;;;;;;;5095382;28;20039;-22
2022/05/02 01:26:00;;;;;;;3.88;3.67;;;;;;;;;;5095000;28;20115;-21
2022/05/02 01:28:28;;;;;;;3.80;3.60;;;;;;;;;;5095641;28;20438;-21
2022/05/02 01:30:55;;;;;;;3.30;3.10;;;;;;;;;;5095022;28;20028;-22
2022/05/02 01:33:21;;;;;;;3.10;2.90;;;;;;;;;;5094042;28;20114;-21
2022/05/02 01:35:47;;;;;;;3.63;3.42;;;;;;;;;;5095281;28;20405;-21
2022/05/02 01:38:13;;;;;;;3.10;2.90;;;;;;;;;;5095203;28;20368;-22
2022/05/02 01:40:40;;;;;;;3.55;3.33;;;;;;;;;;5095158;28;20115;-22
2022/05/02 01:43:06;;;;;;;3.53;3.33;;;;;;;;;;5094681;28;20044;-22
2022/05/02 01:45:32;;;;;;;3.60;3.40;;;;;;;;;;5095103;28;20400;-24
2022/05/02 01:47:59;;;;;;;3.30;3.10;;;;;;;;;;5094804;28;20038;-23
2022/05/02 01:50:25;;;;;;;3.42;3.22;;;;;;;;;;5094786;28;20032;-21
2022/05/02 01:52:51;;;;;;;3.45;3.25;;;;;;;;;;5094765;28;20059;-21
2022/05/02 01:55:17;;;;;;;3.55;3.35;;;;;;;;;;5094679;28;20028;-22
2022/05/02 01:57:44;;;;;;;3.50;3.30;;;;;;;;;;5094377;28;20031;-22
2022/05/02 02:00:10;;;;;;;3.95;3.75;;;;;;;;;;5094830;28;20411;-21
2022/05/02 02:02:36;;;;;;;3.55;3.28;;;;;;;;;;5094929;28;20364;-21
2022/05/02 02:07:47;;;;;;;3.35;3.15;;;;;;;;;;5094715;28;20093;-22
2022/05/02 02:10:14;;;;;;;3.85;3.65;;;;;;;;;;5094551;28;20107;-21
2022/05/02 02:12:40;;;;;;;3.45;3.25;;;;;;;;;;5094858;28;20020;-21
2022/05/02 02:15:07;;;;;;;3.15;2.95;;;;;;;;;;5094483;28;20112;-21
2022/05/02 02:17:33;;;;;;;3.40;3.20;;;;;;;;;;5094804;28;20037;-22
2022/05/02 02:19:59;;;;;;;3.85;3.65;;;;;;;;;;5095069;28;20020;-21
2022/05/02 02:22:26;;;;;;;3.17;2.97;;;;;;;;;;5094478;28;20024;-21
2022/05/02 02:24:52;;;;;;;3.78;3.58;;;;;;;;;;5094337;28;20028;-22
2022/05/02 02:27:19;;;;;;;3.00;2.90;;;;;;;;;;5094729;28;20099;-21
2022/05/02 02:29:45;;;;;;;3.08;2.88;;;;;;;;;;5093438;28;20445;-22
2022/05/02 02:32:11;;;;;;;3.67;3.47;;;;;;;;;;5094401;28;20020;-21
2022/05/02 02:34:37;;;;;;;3.33;3.13;;;;;;;;;;5094600;28;20206;-22
2022/05/02 02:37:03;;;;;;;3.05;2.88;;;;;;;;;;5094383;28;20028;-22
2022/05/02 02:39:30;;;;;;;3.50;3.30;;;;;;;;;;5094642;28;20091;-21
2022/05/02 02:41:56;;;;;;;2.85;2.65;;;;;;;;;;5094301;28;20040;-22
2022/05/02 02:44:22;;;;;;;3.22;2.97;;;;;;;;;;5094691;28;20041;-22
2022/05/02 02:46:48;;;;;;;3.38;3.17;;;;;;;;;;5094747;28;20068;-22
2022/05/02 02:49:14;;;;;;;3.50;3.30;;;;;;;;;;5094525;28;20392;-22
2022/05/02 02:51:40;;;;;;;3.17;2.97;;;;;;;;;;5094256;28;20028;-22
2022/05/02 02:54:06;;;;;;;3.35;3.15;;;;;;;;;;5094153;28;20024;-21
2022/05/02 02:56:33;;;;;;;3.17;2.97;;;;;;;;;;5094221;28;20478;-21
2022/05/02 02:58:59;;;;;;;2.85;2.75;;;;;;;;;;5094158;28;20456;-21
2022/05/02 03:01:25;;;;;;;3.17;2.97;;;;;;;;;;5094679;28;20043;-22
2022/05/02 03:03:52;;;;;;;3.47;3.28;;;;;;;;;;5094054;28;20110;-21
2022/05/02 03:06:18;;;;;;;2.88;2.70;;;;;;;;;;5094040;28;20028;-21
2022/05/02 03:08:44;;;;;;;3.30;3.10;;;;;;;;;;5094530;28;20020;-22
2022/05/02 03:11:11;;;;;;;3.22;3.03;;;;;;;;;;5095980;28;20153;-23
2022/05/02 03:13:37;;;;;;;3.20;3.00;;;;;;;;;;5097523;28;20016;-21
2022/05/02 03:16:04;;;;;;;3.25;3.05;;;;;;;;;;5097621;28;20364;-21
2022/05/02 03:18:31;;;;;;;3.22;3.03;;;;;;;;;;5097829;28;20059;-22
2022/05/02 03:20:57;;;;;;;3.13;2.92;;;;;;;;;;5098077;28;20085;-22
2022/05/02 03:23:23;;;;;;;2.70;2.55;;;;;;;;;;5096462;28;20039;-22
2022/05/02 03:25:49;;;;;;;3.30;3.10;;;;;;;;;;5097620;28;20063;-22
2022/05/02 03:28:16;;;;;;;2.60;2.50;;;;;;;;;;5097374;28;20032;-21
2022/05/02 03:30:42;;;;;;;3.55;3.28;;;;;;;;;;5097598;28;20034;-22
2022/05/02 03:33:08;;;;;;;3.10;2.90;;;;;;;;;;5097459;28;20051;-22
2022/05/02 03:35:35;;;;;;;3.10;3.00;;;;;;;;;;5097790;28;20036;-22
2022/05/02 03:38:01;;;;;;;2.70;2.60;;;;;;;;;;5096186;28;20080;-21
2022/05/02 03:40:27;;;;;;;3.10;2.90;;;;;;;;;;5097631;28;20035;-22
2022/05/02 03:42:54;;;;;;;3.13;2.92;;;;;;;;;;5097094;28;20088;-21
2022/05/02 03:45:20;;;;;;;3.10;2.90;;;;;;;;;;5096943;28;20031;-21
2022/05/02 03:47:46;;;;;;;3.28;3.08;;;;;;;;;;5096943;28;20016;-21
2022/05/02 03:50:12;;;;;;;2.92;2.83;;;;;;;;;;5096945;28;20020;-22
2022/05/02 03:52:39;;;;;;;2.92;2.83;;;;;;;;;;5097040;28;20043;-22
2022/05/02 03:55:05;;;;;;;3.83;3.63;;;;;;;;;;5096617;28;20055;-21
2022/05/02 03:57:31;;;;;;;2.90;2.70;;;;;;;;;;5096712;28;20097;-22
2022/05/02 03:59:57;;;;;;;3.05;2.85;;;;;;;;;;5096885;28;20022;-22
2022/05/02 04:02:23;;;;;;;2.50;2.40;;;;;;;;;;5096585;28;20051;-22
2022/05/02 04:04:50;;;;;;;3.35;3.15;;;;;;;;;;5096423;28;20032;-23
2022/05/02 04:07:16;;;;;;;3.13;2.92;;;;;;;;;;5096367;28;20066;-22
2022/05/02 04:09:42;;;;;;;2.97;2.88;;;;;;;;;;5096299;28;20052;-45
2022/05/02 04:12:08;;;;;;;3.15;2.95;;;;;;;;;;5096603;28;20016;-21
2022/05/02 04:14:34;;;;;;;3.35;3.15;;;;;;;;;;5096498;28;20115;-22
2022/05/02 04:17:01;;;;;;;2.95;2.83;;;;;;;;;;5096290;28;20039;-24
2022/05/02 04:19:27;;;;;;;2.80;2.70;;;;;;;;;;5096189;28;20028;-24
2022/05/02 04:21:53;;;;;;;2.80;2.60;;;;;;;;;;5096263;28;20028;-22
2022/05/02 04:24:19;;;;;;;3.22;3.03;;;;;;;;;;5096189;28;20043;-22
2022/05/02 04:26:46;;;;;;;2.70;2.60;;;;;;;;;;5096371;28;20096;-21
2022/05/02 04:29:12;;;;;;;3.03;2.83;;;;;;;;;;5096047;28;20369;-22
2022/05/02 04:31:38;;;;;;;3.22;3.03;;;;;;;;;;5095879;28;20024;-21
2022/05/02 04:34:04;;;;;;;2.70;2.60;;;;;;;;;;5096069;28;20156;-22
2022/05/02 04:36:30;;;;;;;2.80;2.60;;;;;;;;;;5096012;28;20089;-22
2022/05/02 04:38:56;;;;;;;3.03;2.92;;;;;;;;;;5096258;28;20036;-22
2022/05/02 04:41:24;;;;;;;3.30;3.08;;;;;;;;;;5095873;28;20028;-22
2022/05/02 04:43:52;;;;;;;3.17;2.97;;;;;;;;;;5095563;28;20055;-22
2022/05/02 04:46:20;;;;;;;2.72;2.63;;;;;;;;;;5094744;28;20038;-22
2022/05/02 04:48:46;;;;;;;3.35;3.15;;;;;;;;;;5095696;28;20020;-22
2022/05/02 04:51:12;;;;;;;3.38;3.17;;;;;;;;;;5095658;28;20360;-22
2022/05/02 04:53:38;;;;;;;3.08;2.88;;;;;;;;;;5095531;28;20016;-21
2022/05/02 04:56:04;;;;;;;3.35;3.15;;;;;;;;;;5096187;28;20160;-21
2022/05/02 04:58:31;;;;;;;2.80;2.65;;;;;;;;;;5095574;28;20028;-21
2022/05/02 05:00:57;;;;;;;4.63;3.58;;;;;;;;;;5094561;28;20042;-21
2022/05/02 05:03:23;;;;;;;3.00;2.63;;;;;;;;;;5095444;28;20036;-21
2022/05/02 05:05:49;;;;;;;3.28;2.97;;;;;;;;;;5095426;28;20463;-22
2022/05/02 05:08:16;;;;;;;3.38;3.00;;;;;;;;;;5095427;28;20097;-21
2022/05/02 05:10:48;;;;;;;5.78;3.72;;;;;;;;;;5094357;28;20153;-21
2022/05/02 05:13:19;;;;;;;3.30;3.10;;;;;;;;;;5095643;28;20341;-21
2022/05/02 05:18:39;;;;;;;2.85;2.65;;;;;;;;;;5095148;28;20035;-22
2022/05/02 05:21:08;;;;;;;3.03;2.83;;;;;;;;;;5095467;28;20051;-22
2022/05/02 05:24:12;;;;;;;3.55;3.13;;;;;;;;;;5095056;28;20032;-22
2022/05/02 05:26:51;;;;;;;3.67;2.97;;;;;;;;;;4997133;28;20460;-23
2022/05/02 05:29:34;;;;;;;3.30;3.10;;;;;;;;;;4997791;28;20033;-22
2022/05/02 05:32:03;;;;;;;3.03;2.90;;;;;;;;;;5068988;28;20189;-23
2022/05/02 05:34:56;;;;;;;3.83;3.47;;;;;;;;;;5094335;28;20463;-22
2022/05/02 05:37:40;;;;;;;9.25;3.17;;;;;;;;;;5064066;28;20042;-22
2022/05/02 05:40:16;;;;;;;3.38;2.90;;;;;;;;;;5094852;28;20050;-22
2022/05/02 05:42:45;;;;;;;9.73;3.45;;;;;;;;;;5094757;28;20028;-22
2022/05/02 05:45:15;;;;;;;3.90;2.95;;;;;;;;;;5094645;28;20495;-22
2022/05/02 05:47:44;;;;;;;6.45;3.25;;;;;;;;;;5095020;28;20193;-22
2022/05/02 05:50:24;;;;;;;4.47;2.90;;;;;;;;;;5095266;28;20052;-23
2022/05/02 05:52:59;;;;;;;3.75;3.45;;;;;;;;;;5095414;28;20020;-22
2022/05/02 05:55:25;;;;;;;7.18;3.05;;;;;;;;;;5094681;28;20480;-23
2022/05/02 05:58:09;;;;;;;9.60;3.08;;;;;;;;;;5093658;28;20047;-22
2022/05/02 06:03:26;;;;;;;6.68;3.17;;;;;;;;;;5311860;23;20077;-26
2022/05/02 06:05:52;;;;;;;2.50;2.40;;;;;;;;;;4994976;28;20030;-26
2022/05/02 06:08:22;;;;;;;6.30;3.15;;;;;;;;;;4995587;28;20027;-26
2022/05/02 06:10:50;;;;;;;7.73;3.60;;;;;;;;;;4994998;28;20033;-26
2022/05/02 06:13:17;;;;;;;9.82;3.83;;;;;;;;;;4994915;28;20466;-27
2022/05/02 06:18:35;;;;;;;3.22;2.70;;;;;;;;;;4995240;28;20100;-27
2022/05/02 06:21:08;;;;;;;6.53;2.80;;;;;;;;;;4995502;28;20402;-27
2022/05/02 06:23:41;;;;;;;3.03;2.58;;;;;;;;;;4994826;28;20030;-27
2022/05/02 06:26:08;;;;;;;7.18;3.15;;;;;;;;;;4977677;28;20486;-27
2022/05/02 06:28:44;;;;;;;5.43;3.00;;;;;;;;;;4995412;28;20022;-26
2022/05/02 06:31:18;;;;;;;3.25;2.88;;;;;;;;;;4995145;28;20481;-27
2022/05/02 06:33:48;;;;;;;4.13;3.13;;;;;;;;;;4995015;28;20410;-26
2022/05/02 06:36:35;;;;;;;3.85;3.22;;;;;;;;;;4994817;28;20034;-26
2022/05/02 06:39:06;;;;;;;3.00;2.70;;;;;;;;;;4994650;28;20037;-26
2022/05/02 06:41:32;;;;;;;;;;;;;;;;;;4995092;28;20034;-26
2022/05/02 06:44:02;;;;;;;7.47;2.90;;;;;;;;;;4994691;28;19916;-26
2022/05/02 06:46:38;;;;;;;3.95;2.80;;;;;;;;;;4998451;28;20169;-26
2022/05/02 06:49:08;;;;;;;6.65;2.67;;;;;;;;;;4998706;28;20033;-26
2022/05/02 06:51:42;;;;;;;3.88;2.95;;;;;;;;;;4998310;28;20174;-26
2022/05/02 06:54:27;;;;;;;3.70;3.40;;;;;;;;;;4998601;28;20049;-26
2022/05/02 06:56:53;;;;;;;6.60;2.95;;;;;;;;;;4998550;28;20348;-26
2022/05/02 06:59:34;;;;;;;3.83;3.53;;;;;;;;;;4998777;28;20454;-26
2022/05/02 07:02:20;;;;;;;3.35;3.13;;;;;;;;;;4998638;28;20038;-26
2022/05/02 07:04:53;;;;;;;4.18;3.53;;;;;;;;;;4958772;28;20061;-27
2022/05/02 07:07:31;;;;;;;3.58;2.58;;;;;;;;;;4998064;28;20130;-27
2022/05/02 07:10:02;;;;;;;3.88;2.83;;;;;;;;;;4998094;28;20510;-27
2022/05/02 07:12:28;;;;;;;;;;;;;;;;;;4998340;28;20029;-27
2022/05/02 07:15:05;;;;;;;3.58;2.90;;;;;;;;;;4997886;28;19905;-27
2022/05/02 07:17:43;;;;;;;5.78;3.35;;;;;;;;;;4997887;28;20058;-26
2022/05/02 07:20:12;;;;;;;6.55;2.53;;;;;;;;;;4998290;28;20026;-27
2022/05/02 07:22:43;;;;;;;11.30;2.72;;;;;;;;;;4997782;28;20088;-27
2022/05/02 07:25:13;;;;;;;3.83;3.03;;;;;;;;;;4998279;28;20057;-26
2022/05/02 07:27:40;;;;;;;8.52;3.72;;;;;;;;;;4998046;28;20019;-27
2022/05/02 07:30:06;;;;;;;6.63;3.38;;;;;;;;;;4997937;28;20032;-27
2022/05/02 07:32:33;;;;;;;5.35;2.78;;;;;;;;;;4997560;28;20027;-27
2022/05/02 07:34:59;;;;;;;3.42;3.03;;;;;;;;;;4997542;28;20026;-27
2022/05/02 07:37:26;;;;;;;4.03;2.58;;;;;;;;;;4997425;28;20027;-27
2022/05/02 07:39:52;;;;;;;3.42;2.97;;;;;;;;;;4997473;28;20045;-27
2022/05/02 07:42:19;;;;;;;9.00;2.75;;;;;;;;;;4997236;28;20027;-27
2022/05/02 07:44:48;;;;;;;6.35;3.40;;;;;;;;;;4997519;28;20058;-27
2022/05/02 07:47:15;;;;;;;5.13;2.72;;;;;;;;;;4997796;28;20026;-27
2022/05/02 07:49:45;;;;;;;9.20;3.08;;;;;;;;;;4997781;28;20049;-27
2022/05/02 07:52:12;;;;;;;4.00;3.40;;;;;;;;;;4997135;28;20117;-26
2022/05/02 07:54:43;;;;;;;2.78;2.58;;;;;;;;;;4997231;28;20042;-26
2022/05/02 07:57:09;;;;;;;3.15;2.80;;;;;;;;;;4997090;28;20037;-26
2022/05/02 07:59:42;;;;;;;3.85;3.50;;;;;;;;;;4980646;28;20062;-26
2022/05/02 08:02:09;;;;;;;9.20;3.58;;;;;;;;;;4997139;28;20439;-26
2022/05/02 08:04:38;;;;;;;6.93;2.78;;;;;;;;;;4997166;28;20026;-26
2022/05/02 08:07:25;;;;;;;8.38;3.17;;;;;;;;;;4996918;28;20036;-26
2022/05/02 08:10:09;;;;;;;7.38;2.75;;;;;;;;;;4997598;28;20030;-26
2022/05/02 08:12:42;;;;;;;4.65;2.95;;;;;;;;;;4997117;28;20362;-26
2022/05/02 08:15:26;;;;;;;10.07;4.78;;;;;;;;;;4997216;28;20034;-26
2022/05/02 08:17:58;;;;;;;15.48;3.83;;;;;;;;;;4997333;28;20038;-26
2022/05/02 08:20:43;;;;;;;6.93;3.00;;;;;;;;;;4997054;28;20045;-26
2022/05/02 08:29:35;;;;;;;8.63;3.10;;;;;;;;;;4996855;28;20122;-26
2022/05/02 08:32:10;;;;;;;11.57;4.70;;;;;;;;;;4996451;28;20489;-26
2022/05/02 08:34:39;;;;;;;10.25;3.75;;;;;;;;;;4996722;28;20383;-26
2022/05/02 08:37:18;;;;;;;9.95;2.92;;;;;;;;;;4997239;28;20045;-26
2022/05/02 08:39:44;;;;;;;13.32;3.83;;;;;;;;;;4996411;28;20489;-26
2022/05/02 08:42:11;;;;;;;7.15;2.95;;;;;;;;;;4996595;28;20034;-26
2022/05/02 08:44:49;;;;;;;6.30;3.75;;;;;;;;;;4996308;28;20031;-26
2022/05/02 08:47:34;;;;;;;8.57;2.78;;;;;;;;;;4996577;28;20117;-26
2022/05/02 08:50:10;;;;;;;7.93;3.17;;;;;;;;;;4996252;28;20026;-26
2022/05/02 08:52:54;;;;;;;9.05;3.35;;;;;;;;;;4996314;28;20371;-26
2022/05/02 08:55:30;;;;;;;9.02;5.03;;;;;;;;;;4996108;28;20030;-26
2022/05/02 08:58:09;;;;;;;3.47;3.17;;;;;;;;;;4995925;28;20045;-26
2022/05/02 09:00:35;;;;;;;8.63;4.10;;;;;;;;;;4996229;28;20045;-26
2022/05/02 09:03:13;;;;;;;10.43;3.17;;;;;;;;;;4995813;28;20050;-26
2022/05/02 09:05:46;;;;;;;6.38;3.00;;;;;;;;;;4978722;28;20474;-26
2022/05/02 09:08:31;;;;;;;9.18;2.92;;;;;;;;;;4996111;28;20057;-26
2022/05/02 09:11:08;;;;;;;12.63;3.70;;;;;;;;;;4996034;28;20109;-26
2022/05/02 09:13:44;;;;;;;4.32;2.88;;;;;;;;;;4995777;28;20033;-26
2022/05/02 09:16:29;;;;;;;5.93;3.15;;;;;;;;;;4995745;28;20387;-26
2022/05/02 09:19:14;;;;;;;12.10;3.60;;;;;;;;;;4995651;28;20034;-26
2022/05/02 09:21:40;;;;;;;6.90;2.95;;;;;;;;;;4996144;28;20030;-27
2022/05/02 09:24:24;;;;;;;10.93;3.13;;;;;;;;;;4996097;28;20317;-26
2022/05/02 09:26:53;;;;;;;10.18;3.58;;;;;;;;;;4995829;28;20035;-26
2022/05/02 09:29:19;;;;;;;10.35;3.08;;;;;;;;;;4978483;28;20026;-27
2022/05/02 09:31:59;;;;;;;15.10;3.53;;;;;;;;;;4995250;28;20077;-27
2022/05/02 09:34:36;;;;;;;22.48;3.42;;;;;;;;;;4995917;28;20109;-26
2022/05/02 09:37:06;;;;;;;9.75;3.53;;;;;;;;;;4995599;28;20084;-28
2022/05/02 09:39:50;;;;;;;9.15;3.15;;;;;;;;;;4995601;28;20031;-27
2022/05/02 09:42:17;;;;;;;9.40;3.30;;;;;;;;;;4995275;28;20061;-27
2022/05/02 09:50:34;;;;;;;5.45;2.72;;;;;;;;;;4995299;28;20049;-27
2022/05/02 09:53:16;;;;;;;9.88;3.85;;;;;;;;;;4995428;28;20019;-26
2022/05/02 09:58:38;;;;;;;5.43;3.00;;;;;;;;;;4995118;28;20049;-26
2022/05/02 10:01:11;;;;;;;4.32;3.20;;;;;;;;;;4995370;28;20034;-27
2022/05/02 10:03:49;;;;;;;8.02;3.00;;;;;;;;;;4994872;28;20110;-27
2022/05/02 10:06:18;;;;;;;12.82;3.75;;;;;;;;;;4995199;28;20034;-27
2022/05/02 10:08:45;;;;;;;9.93;3.45;;;;;;;;;;4994925;28;20046;-27
2022/05/02 10:11:14;;;;;;;6.15;3.13;;;;;;;;;;4994901;28;20045;-26
2022/05/02 10:13:46;;;;;;;6.22;3.53;;;;;;;;;;4995457;28;20030;-27
2022/05/02 10:16:31;;;;;;;13.23;3.35;;;;;;;;;;4977862;28;20482;-27
2022/05/02 10:19:16;;;;;;;11.70;5.93;;;;;;;;;;4995187;28;20452;-27
2022/05/02 10:22:02;;;;;;;6.57;4.38;;;;;;;;;;4998614;28;20049;-27
2022/05/02 10:24:46;;;;;;;5.30;3.80;;;;;;;;;;4959795;28;20038;-27
2022/05/02 10:27:21;;;;;;;6.35;3.50;;;;;;;;;;4998996;28;20458;-27
2022/05/02 10:30:03;;;;;;;8.82;3.72;;;;;;;;;;4998767;28;20084;-27
2022/05/02 10:32:43;;;;;;;10.18;3.72;;;;;;;;;;4998683;28;20407;-27
2022/05/02 10:35:17;;;;;;;13.73;3.78;;;;;;;;;;4998725;28;20474;-26
2022/05/02 10:37:50;;;;;;;18.25;3.72;;;;;;;;;;4998582;28;20121;-27
2022/05/02 10:40:17;;;;;;;8.65;3.83;;;;;;;;;;4998798;28;20371;-26
2022/05/02 10:42:51;;;;;;;9.50;3.17;;;;;;;;;;4998384;28;20430;-27
2022/05/02 10:45:18;;;;;;;8.50;4.28;;;;;;;;;;4998317;28;20030;-27
2022/05/02 10:47:54;;;;;;;11.90;3.70;;;;;;;;;;4998426;28;20114;-27
2022/05/02 10:50:27;;;;;;;4.72;3.25;;;;;;;;;;4998304;28;20058;-27
2022/05/02 10:52:55;;;;;;;5.53;3.35;;;;;;;;;;4998188;28;20058;-27
2022/05/02 10:55:26;;;;;;;12.18;3.97;;;;;;;;;;4998160;28;20085;-27
2022/05/02 10:57:54;;;;;;;14.32;4.05;;;;;;;;;;4998154;28;20026;-26
2022/05/02 11:00:20;;;;;;;10.63;3.50;;;;;;;;;;4998012;28;20172;-26
2022/05/02 11:02:50;;;;;;;7.50;3.92;;;;;;;;;;4997716;28;20063;-26
2022/05/02 11:05:17;;;;;;;13.27;3.75;;;;;;;;;;4997982;28;20045;-26
2022/05/02 11:07:53;;;;;;;6.00;3.47;;;;;;;;;;4997966;28;20463;-26
2022/05/02 11:10:20;;;;;;;15.57;3.42;;;;;;;;;;4998669;28;20041;-26
2022/05/02 11:12:48;;;;;;;14.25;3.85;;;;;;;;;;4998085;28;20116;-26
2022/05/02 11:15:15;;;;;;;12.48;3.65;;;;;;;;;;4997770;28;20467;-26
2022/05/02 11:17:56;;;;;;;15.80;4.28;;;;;;;;;;4998024;28;20078;-26
2022/05/02 11:20:42;;;;;;;10.05;4.60;;;;;;;;;;4997634;28;20041;-26
2022/05/02 11:23:24;;;;;;;8.68;3.65;;;;;;;;;;4997830;28;20045;-27
2022/05/02 11:25:50;;;;;;;;;;;;;;;;;;4997915;28;20030;-26
2022/05/02 11:28:19;;;;;;;9.07;3.33;;;;;;;;;;4997557;28;20024;-26
2022/05/02 11:30:51;;;;;;;10.18;4.72;;;;;;;;;;4996562;28;20470;-27
2022/05/02 11:33:22;;;;;;;5.05;3.83;;;;;;;;;;4997394;28;20064;-27
2022/05/02 11:35:48;;;;;;;;;;;;;;;;;;4997895;28;20037;-26
2022/05/02 11:38:15;;;;;;;9.18;4.00;;;;;;;;;;4997421;28;19921;-26
2022/05/02 11:41:11;;;;;;;13.80;3.65;;;;;;;;;;4997632;28;20046;-26
2022/05/02 11:43:38;;;;;;;13.07;3.90;;;;;;;;;;4981507;28;20049;-26
2022/05/02 11:46:10;;;;;;;15.75;4.05;;;;;;;;;;4997500;28;20034;-26
2022/05/02 11:48:36;;;;;;;7.90;3.95;;;;;;;;;;4997086;28;20030;-27
2022/05/02 11:51:06;;;;;;;7.30;3.85;;;;;;;;;;4997196;28;20030;-27
2022/05/02 11:53:34;;;;;;;16.90;4.53;;;;;;;;;;4997522;28;20371;-27
2022/05/02 11:56:04;;;;;;;10.02;4.25;;;;;;;;;;4997053;28;20034;-27
2022/05/02 11:58:44;;;;;;;7.30;3.63;;;;;;;;;;4997314;28;20344;-27
2022/05/02 12:01:10;;;;;;;11.45;4.82;;;;;;;;;;4996977;28;20034;-27
2022/05/02 12:03:43;;;;;;;10.27;4.30;;;;;;;;;;4996619;28;20042;-27
2022/05/02 12:06:09;;;;;;;12.48;4.60;;;;;;;;;;4979764;28;20451;-26
2022/05/02 12:08:37;;;;;;;7.65;3.95;;;;;;;;;;4996860;28;20354;-26
2022/05/02 12:11:10;;;;;;;13.73;4.25;;;;;;;;;;4997310;28;20027;-26
2022/05/02 12:13:37;;;;;;;11.00;5.72;;;;;;;;;;4996594;28;20029;-26
2022/05/02 12:16:05;;;;;;;10.20;4.60;;;;;;;;;;4996747;28;20038;-26
2022/05/02 12:18:50;;;;;;;12.55;4.65;;;;;;;;;;4996977;28;20088;-27
2022/05/02 12:21:23;;;;;;;13.55;4.95;;;;;;;;;;4997086;28;20030;-27
2022/05/02 12:23:50;;;;;;;8.30;4.10;;;;;;;;;;4997333;28;20057;-27
2022/05/02 12:26:21;;;;;;;13.05;4.97;;;;;;;;;;4996512;28;20045;-27
2022/05/02 12:28:52;;;;;;;17.13;5.80;;;;;;;;;;4996543;28;20030;-26
2022/05/02 12:31:20;;;;;;;7.00;4.18;;;;;;;;;;4996599;28;20031;-27
2022/05/02 12:33:53;;;;;;;8.10;4.22;;;;;;;;;;4996289;28;20031;-26
2022/05/02 12:36:20;;;;;;;12.45;3.97;;;;;;;;;;4996656;28;20442;-26
2022/05/02 12:38:54;;;;;;;20.67;7.28;;;;;;;;;;4996132;28;20074;-26
2022/05/02 12:41:26;;;;;;;8.60;5.15;;;;;;;;;;4996268;28;20034;-26
2022/05/02 12:43:54;;;;;;;11.90;4.18;;;;;;;;;;4995794;28;20041;-27
2022/05/02 12:46:24;;;;;;;20.77;5.82;;;;;;;;;;4996269;28;20034;-26
2022/05/02 12:48:56;;;;;;;7.80;4.07;;;;;;;;;;4995917;28;20037;-27
2022/05/02 12:51:27;;;;;;;8.70;4.85;;;;;;;;;;4996278;28;20402;-26
2022/05/02 12:54:14;;;;;;;9.02;3.90;;;;;;;;;;4996200;28;20030;-26
2022/05/02 13:02:33;;;;;;;7.30;4.55;;;;;;;;;;4995746;28;20080;-26
2022/05/02 13:05:01;;;;;;;6.40;4.00;;;;;;;;;;4995854;28;20041;-27
2022/05/02 13:07:27;;;;;;;10.85;4.57;;;;;;;;;;4995698;28;20088;-27
2022/05/02 13:09:53;;;;;;;7.30;4.60;;;;;;;;;;4995978;28;20032;-27
2022/05/02 13:12:22;;;;;;;8.07;4.68;;;;;;;;;;4995947;28;20367;-27
2022/05/02 13:14:50;;;;;;;21.08;4.65;;;;;;;;;;4995655;28;20407;-27
2022/05/02 13:17:17;;;;;;;7.70;5.15;;;;;;;;;;4995912;28;20026;-27
2022/05/02 13:19:44;;;;;;;9.25;4.05;;;;;;;;;;4995918;28;20132;-27
2022/05/02 13:22:10;;;;;;;13.63;5.00;;;;;;;;;;4995480;28;20037;-27
2022/05/02 13:24:37;;;;;;;11.20;4.72;;;;;;;;;;4995763;28;20030;-26
2022/05/02 13:27:19;;;;;;;10.57;4.38;;;;;;;;;;4995725;28;20120;-27
2022/05/02 13:29:51;;;;;;;7.10;4.47;;;;;;;;;;4996089;28;20037;-26
2022/05/02 13:32:23;;;;;;;13.18;4.80;;;;;;;;;;4995578;28;20026;-27
2022/05/02 13:34:50;;;;;;;;;;;;;;;;;;4995891;28;20022;-26
2022/05/02 13:37:26;;;;;;;7.90;4.68;;;;;;;;;;4995260;28;19941;-27
2022/05/02 13:40:04;;;;;;;11.90;5.38;;;;;;;;;;4995686;28;20133;-26
2022/05/02 13:42:55;;;;;;;9.18;5.00;;;;;;;;;;4995591;28;20109;-27
2022/05/02 13:45:31;;;;;;;8.13;5.70;;;;;;;;;;4995236;28;20030;-27
2022/05/02 13:48:13;;;;;;;12.88;4.72;;;;;;;;;;4995261;28;20471;-27
2022/05/02 13:50:40;;;;;;;12.18;5.28;;;;;;;;;;4995519;28;20387;-27
2022/05/02 13:53:18;;;;;;;9.52;4.80;;;;;;;;;;4995379;28;20037;-27
2022/05/02 13:55:45;;;;;;;8.40;4.80;;;;;;;;;;4994612;28;20038;-27
2022/05/02 13:58:24;;;;;;;11.88;4.65;;;;;;;;;;4995021;28;20034;-27
2022/05/02 14:03:53;;;;;;;11.02;5.15;;;;;;;;;;4995026;28;20145;-27
2022/05/02 14:06:25;;;;;;;16.38;6.72;;;;;;;;;;4995029;28;20045;-27
2022/05/02 14:08:53;;;;;;;9.20;5.50;;;;;;;;;;4995060;28;20181;-27
2022/05/02 14:11:20;;;;;;;10.88;5.40;;;;;;;;;;4994978;28;20037;-26
2022/05/02 14:13:47;;;;;;;19.77;6.60;;;;;;;;;;4994983;28;20030;-27
2022/05/02 14:16:14;;;;;;;4.78;4.38;;;;;;;;;;4995486;28;20058;-27
2022/05/02 14:19:09;;;;;;;8.55;4.75;;;;;;;;;;4994948;28;20049;-27
2022/05/02 14:21:44;;;;;;;6.53;5.15;;;;;;;;;;4992949;28;20109;-27
2022/05/02 14:24:10;;;;;;;11.98;5.20;;;;;;;;;;4994923;28;20490;-27
2022/05/02 14:26:37;;;;;;;9.65;5.63;;;;;;;;;;4995117;28;20034;-27
2022/05/02 14:29:08;;;;;;;9.73;5.32;;;;;;;;;;4995160;28;20066;-27
2022/05/02 14:31:36;;;;;;;8.85;5.55;;;;;;;;;;4995182;28;20026;-27
2022/05/02 14:34:09;;;;;;;9.68;4.57;;;;;;;;;;4995053;28;20030;-27
2022/05/02 14:36:36;;;;;;;13.40;5.00;;;;;;;;;;4995066;28;20049;-27
2022/05/02 14:39:06;;;;;;;13.48;5.13;;;;;;;;;;4994780;28;20031;-27
2022/05/02 14:41:35;;;;;;;10.13;5.03;;;;;;;;;;4995044;28;20456;-27
2022/05/02 14:44:02;;;;;;;11.65;6.80;;;;;;;;;;4994528;28;20030;-27
2022/05/02 14:46:29;;;;;;;9.98;4.95;;;;;;;;;;4994890;28;20030;-27
2022/05/02 14:48:56;;;;;;;15.73;5.70;;;;;;;;;;4994928;28;20033;-27
2022/05/02 14:51:29;;;;;;;14.85;5.60;;;;;;;;;;4994664;28;20022;-27
2022/05/02 14:53:57;;;;;;;6.55;4.97;;;;;;;;;;4995113;28;20031;-27
2022/05/02 14:56:25;;;;;;;11.48;5.95;;;;;;;;;;4994819;28;20105;-26
2022/05/02 14:58:54;;;;;;;14.80;5.35;;;;;;;;;;4995067;28;20431;-26
2022/05/02 15:01:22;;;;;;;7.22;4.93;;;;;;;;;;4994759;28;20046;-27
2022/05/02 15:03:53;;;;;;;9.70;5.22;;;;;;;;;;4994264;28;20042;-27
2022/05/02 15:06:20;;;;;;;;;;;;;;;;;;4997017;28;20096;-27
2022/05/02 15:09:04;;;;;;;9.10;5.15;;;;;;;;;;4998274;28;19917;-27
2022/05/02 15:11:30;;;;;;;11.82;5.07;;;;;;;;;;4998529;28;20096;-27
2022/05/02 15:14:06;;;;;;;6.80;4.72;;;;;;;;;;4997960;28;20026;-27
2022/05/02 15:16:38;;;;;;;15.02;5.10;;;;;;;;;;4998227;28;20069;-27
2022/05/02 15:22:09;;;;;;;12.98;6.40;;;;;;;;;;4997898;28;20048;-27
2022/05/02 15:25:29;;;;;;;8.98;5.10;;;;;;;;;;4985155;28;20117;-27
2022/05/02 15:38:47;;;;;;;8.73;4.68;;;;;;;;;;4997865;28;20084;-27
2022/05/02 15:41:16;;;;;;;13.20;4.28;;;;;;;;;;4997783;28;20046;-26
2022/05/02 15:43:50;;;;;;;6.93;5.68;;;;;;;;;;4997356;28;20023;-27
2022/05/02 15:46:18;;;;;;;12.10;5.65;;;;;;;;;;4997623;28;20034;-26
2022/05/02 15:48:44;;;;;;;10.68;5.80;;;;;;;;;;4997592;28;20370;-27
2022/05/02 15:51:20;;;;;;;10.27;4.82;;;;;;;;;;4997257;28;20447;-27
2022/05/02 15:53:46;;;;;;;12.93;6.30;;;;;;;;;;4997390;28;20134;-27